createdAt,value
2023-04-01T00:01:43.489Z,0.05
2023-04-01T00:06:44.914Z,0.05
2023-04-01T00:11:46.401Z,0.00
2023-04-01T00:16:47.836Z,0.00
2023-04-01T00:21:49.247Z,0.00
2023-04-01T00:26:50.617Z,0.00
2023-04-01T00:31:52.199Z,0.00
2023-04-01T00:36:53.700Z,0.00
2023-04-01T00:41:55.117Z,0.03
2023-04-01T00:46:56.894Z,0.08
2023-04-01T00:51:58.462Z,0.00
2023-04-01T00:57:18.930Z,0.00
2023-04-01T01:02:20.378Z,0.05
2023-04-01T01:07:40.159Z,0.00
2023-04-01T01:12:56.677Z,0.00
2023-04-01T01:18:28.842Z,0.00
2023-04-01T01:24:08.121Z,0.00
2023-04-01T01:29:21.512Z,0.00
2023-04-01T01:34:26.426Z,0.05
2023-04-01T01:39:30.102Z,0.00
2023-04-01T01:44:31.556Z,0.00
2023-04-01T01:49:33.304Z,0.00
2023-04-01T01:54:34.710Z,0.10
2023-04-01T01:59:36.820Z,0.00
2023-04-01T02:04:40.209Z,0.00
2023-04-01T02:09:41.678Z,0.10
2023-04-01T02:14:58.219Z,0.03
2023-04-01T02:20:07.189Z,0.10
2023-04-01T02:25:11.297Z,0.00
2023-04-01T02:30:13.714Z,0.00
2023-04-01T02:35:16.405Z,0.08
2023-04-01T02:40:18.223Z,0.00
2023-04-01T02:45:19.703Z,0.00
2023-04-01T02:50:21.110Z,0.00
2023-04-01T02:55:22.551Z,0.00
2023-04-01T03:00:23.963Z,0.00
2023-04-01T03:05:25.403Z,0.00
2023-04-01T03:10:26.810Z,0.03
2023-04-01T03:15:28.198Z,0.10
2023-04-01T03:20:29.654Z,0.00
2023-04-01T03:25:31.720Z,0.00
2023-04-01T03:30:34.502Z,0.10
2023-04-01T03:35:36.903Z,0.03
2023-04-01T03:40:39.221Z,0.00
2023-04-01T03:45:50.368Z,0.05
2023-04-01T03:50:51.855Z,0.20
2023-04-01T03:55:53.331Z,0.10
2023-04-01T04:00:55.537Z,0.00
2023-04-01T04:05:57.413Z,0.10
2023-04-01T04:10:58.851Z,0.00
2023-04-01T04:16:00.356Z,0.05
2023-04-01T04:21:01.799Z,0.10
2023-04-01T04:26:13.041Z,0.10
2023-04-01T04:31:19.861Z,0.00
2023-04-01T04:36:21.472Z,0.00
2023-04-01T04:41:22.993Z,0.10
2023-04-01T04:46:24.732Z,0.00
2023-04-01T04:51:26.247Z,0.00
2023-04-01T04:56:27.635Z,0.03
2023-04-01T05:01:29.106Z,0.10
2023-04-01T05:06:30.749Z,0.00
2023-04-01T05:11:32.196Z,0.00
2023-04-01T05:16:33.638Z,0.10
2023-04-01T05:21:35.034Z,0.00
2023-04-01T05:26:37.592Z,0.00
2023-04-01T05:31:38.982Z,0.00
2023-04-01T05:36:40.872Z,0.00
2023-04-01T05:41:42.447Z,0.00
2023-04-01T05:46:43.838Z,0.00
2023-04-01T05:51:45.334Z,0.10
2023-04-01T05:56:48.588Z,0.00
2023-04-01T06:01:50.437Z,0.10
2023-04-01T06:06:52.692Z,0.20
2023-04-01T06:12:01.579Z,0.10
2023-04-01T06:17:06.223Z,0.00
2023-04-01T06:22:34.729Z,0.10
2023-04-01T06:28:23.285Z,0.00
2023-04-01T06:33:47.350Z,0.00
2023-04-01T06:39:08.901Z,0.00
2023-04-01T06:44:44.205Z,0.00
2023-04-01T06:50:04.063Z,0.03
2023-04-01T06:55:22.936Z,0.00
2023-04-01T07:00:30.548Z,0.00
2023-04-01T07:05:32.305Z,0.00
2023-04-01T07:10:43.994Z,0.00
2023-04-01T07:15:51.366Z,0.00
2023-04-01T07:20:52.764Z,0.10
2023-04-01T07:26:00.815Z,0.10
2023-04-01T07:31:12.426Z,0.00
2023-04-01T07:36:27.608Z,0.10
2023-04-01T07:42:00.161Z,0.00
2023-04-01T07:47:01.408Z,0.00
2023-04-01T07:52:09.645Z,0.00
2023-04-01T07:57:32.492Z,0.00
2023-04-01T08:03:03.848Z,0.00
2023-04-01T08:08:27.237Z,0.00
2023-04-01T08:13:59.378Z,0.00
2023-04-01T08:19:18.818Z,0.03
2023-04-01T08:24:46.407Z,0.10
2023-04-01T08:30:00.802Z,0.03
2023-04-01T08:35:09.644Z,0.00
2023-04-01T08:40:38.878Z,0.00
2023-04-01T08:46:18.412Z,0.05
2023-04-01T08:51:47.038Z,0.00
2023-04-01T08:57:20.745Z,0.10
2023-04-01T09:03:10.405Z,0.00
2023-04-01T09:08:49.403Z,0.00
2023-04-01T09:14:07.937Z,0.00
2023-04-01T09:19:17.961Z,0.00
2023-04-01T09:24:25.385Z,0.00
2023-04-01T09:29:55.190Z,0.00
2023-04-01T09:35:25.805Z,0.00
2023-04-01T09:40:48.736Z,0.00
2023-04-01T09:46:12.963Z,0.00
2023-04-01T09:51:38.582Z,0.00
2023-04-01T09:56:46.020Z,0.00
2023-04-01T10:02:14.246Z,0.00
2023-04-01T10:07:46.458Z,0.00
2023-04-01T10:12:56.702Z,0.03
2023-04-01T10:18:24.190Z,0.00
2023-04-01T10:23:40.867Z,0.03
2023-04-01T10:28:57.264Z,0.00
2023-04-01T10:34:21.511Z,0.00
2023-04-01T10:39:31.844Z,0.03
2023-04-01T10:44:46.411Z,0.00
2023-04-01T10:50:17.874Z,0.08
2023-04-01T10:55:38.169Z,0.00
2023-04-01T11:01:08.773Z,0.00
2023-04-01T11:06:22.083Z,0.00
2023-04-01T11:11:56.426Z,0.08
2023-04-01T11:17:19.972Z,0.00
2023-04-01T11:22:53.635Z,0.00
2023-04-01T11:28:21.929Z,0.05
2023-04-01T11:33:36.997Z,0.00
2023-04-01T11:38:54.318Z,0.00
2023-04-01T11:44:21.463Z,0.00
2023-04-01T11:49:41.058Z,0.00
2023-04-01T11:54:58.568Z,0.00
2023-04-01T12:00:27.949Z,0.10
2023-04-01T12:05:38.509Z,0.00
2023-04-01T12:10:57.526Z,0.00
2023-04-01T12:16:23.566Z,0.00
2023-04-01T12:21:45.379Z,0.00
2023-04-01T12:27:11.748Z,0.00
2023-04-01T12:32:30.135Z,0.00
2023-04-01T12:37:56.157Z,0.00
2023-04-01T12:43:06.024Z,0.00
2023-04-01T12:48:34.884Z,0.03
2023-04-01T12:53:43.496Z,0.00
2023-04-01T12:58:44.705Z,0.00
2023-04-01T13:04:21.354Z,0.00
2023-04-01T13:09:36.027Z,0.00
2023-04-01T13:15:04.362Z,0.00
2023-04-01T13:20:19.119Z,0.00
2023-04-01T13:25:36.196Z,0.00
2023-04-01T13:30:41.117Z,0.00
2023-04-01T13:36:09.854Z,0.00
2023-04-01T13:41:30.943Z,0.00
2023-04-01T13:46:55.617Z,0.00
2023-04-01T13:52:19.477Z,0.00
2023-04-01T13:57:38.347Z,0.00
2023-04-01T14:02:55.361Z,0.00
2023-04-01T14:08:18.774Z,0.00
2023-04-01T14:13:47.009Z,0.00
2023-04-01T14:18:54.867Z,0.00
2023-04-01T14:24:08.605Z,0.00
2023-04-01T14:29:24.966Z,0.00
2023-04-01T14:34:34.098Z,0.00
2023-04-01T14:39:45.756Z,0.00
2023-04-01T14:45:13.394Z,0.00
2023-04-01T14:50:45.404Z,0.00
2023-04-01T14:56:00.313Z,0.00
2023-04-01T15:01:11.763Z,0.00
2023-04-01T15:06:33.132Z,0.00
2023-04-01T15:11:47.404Z,0.00
2023-04-01T15:17:16.187Z,0.00
2023-04-01T15:22:31.688Z,0.00
2023-04-01T15:28:19.466Z,0.00
2023-04-01T15:33:50.669Z,0.00
2023-04-01T15:38:53.843Z,0.00
2023-04-01T15:43:55.340Z,0.00
2023-04-01T15:49:02.757Z,0.00
2023-04-01T15:54:13.847Z,0.00
2023-04-01T15:59:36.745Z,0.00
2023-04-01T16:05:22.914Z,0.00
2023-04-01T16:11:01.589Z,0.00
2023-04-01T16:16:11.141Z,0.00
2023-04-01T16:21:38.739Z,0.00
2023-04-01T16:26:49.523Z,0.00
2023-04-01T16:32:12.570Z,0.03
2023-04-01T16:37:18.101Z,0.00
2023-04-01T16:42:36.925Z,0.00
2023-04-01T16:47:46.224Z,0.00
2023-04-01T16:53:26.355Z,0.00
2023-04-01T16:58:35.551Z,0.00
2023-04-01T17:03:42.570Z,0.08
2023-04-01T17:09:08.499Z,0.00
2023-04-01T17:14:23.166Z,0.10
2023-04-01T17:20:01.970Z,0.05
2023-04-01T17:25:40.248Z,0.10
2023-04-01T17:30:49.483Z,0.20
2023-04-01T17:36:17.474Z,0.00
2023-04-01T17:41:38.126Z,0.00
2023-04-01T17:46:45.658Z,0.00
2023-04-01T17:52:20.721Z,0.20
2023-04-01T17:57:41.479Z,0.10
2023-04-01T18:03:04.741Z,0.10
2023-04-01T18:08:09.878Z,0.10
2023-04-01T18:13:49.859Z,0.20
2023-04-01T18:19:08.029Z,0.03
2023-04-01T18:24:15.787Z,0.10
2023-04-01T18:29:18.777Z,0.10
2023-04-01T18:34:42.577Z,0.00
2023-04-01T18:39:48.547Z,0.10
2023-04-01T18:44:56.955Z,0.00
2023-04-01T18:50:30.864Z,0.10
2023-04-01T18:55:52.538Z,0.20
2023-04-01T19:01:14.972Z,0.10
2023-04-01T19:06:32.859Z,0.20
2023-04-01T19:11:59.774Z,0.20
2023-04-01T19:17:06.390Z,0.22
2023-04-01T19:22:36.424Z,0.20
2023-04-01T19:27:42.539Z,0.20
2023-04-01T19:33:05.367Z,0.20
2023-04-01T19:38:20.862Z,0.30
2023-04-01T19:43:31.319Z,0.20
2023-04-01T19:48:47.797Z,0.20
2023-04-01T19:53:49.446Z,0.30
2023-04-01T19:59:08.670Z,0.30
2023-04-01T20:04:31.184Z,0.20
2023-04-01T20:09:59.666Z,0.30
2023-04-01T20:15:02.910Z,0.38
2023-04-01T20:20:22.477Z,0.40
2023-04-01T20:25:24.841Z,0.40
2023-04-01T20:30:37.946Z,0.30
2023-04-01T20:36:11.487Z,0.30
2023-04-01T20:41:27.466Z,0.30
2023-04-01T20:46:56.442Z,0.30
2023-04-01T20:52:01.242Z,0.20
2023-04-01T20:57:33.562Z,0.40
2023-04-01T21:02:49.034Z,0.35
2023-04-01T21:08:13.849Z,0.35
2023-04-01T21:13:32.578Z,0.20
2023-04-01T21:18:56.513Z,0.20
2023-04-01T21:24:56.044Z,0.22
2023-04-01T21:30:15.504Z,0.40
2023-04-01T21:35:32.952Z,0.30
2023-04-01T21:40:56.371Z,0.40
2023-04-01T21:46:18.548Z,0.38
2023-04-01T21:51:42.686Z,0.20
2023-04-01T21:57:18.517Z,0.10
2023-04-01T22:02:50.863Z,0.10
2023-04-01T22:08:04.672Z,0.13
2023-04-01T22:13:17.734Z,0.00
2023-04-01T22:18:23.728Z,0.00
2023-04-01T22:23:29.709Z,0.03
2023-04-01T22:28:33.671Z,0.00
2023-04-01T22:33:44.213Z,0.10
2023-04-01T22:38:57.363Z,0.10
2023-04-01T22:43:58.762Z,0.05
2023-04-01T22:49:23.400Z,0.10
2023-04-01T22:54:33.774Z,0.00
2023-04-01T22:59:53.481Z,0.03
2023-04-01T23:05:00.350Z,0.15
2023-04-01T23:10:02.298Z,0.00
2023-04-01T23:15:03.964Z,0.10
2023-04-01T23:20:27.069Z,0.05
2023-04-01T23:25:40.724Z,0.00
2023-04-01T23:30:41.976Z,0.00
2023-04-01T23:36:05.923Z,0.10
2023-04-01T23:41:07.513Z,0.15
2023-04-01T23:46:09.289Z,0.10
2023-04-01T23:51:39.607Z,0.00
2023-04-01T23:56:44.310Z,0.10
